Montebello, California
Current Conditions -  °F | °C
As of 1:47 AM on Monday 24 Nov 2014 (Local Time) from KCQT Reporting Station
Clear Clear  
Wind Chill: 59°   Ceiling: Unl
Heat Index: 59°   Visibility: 10mi
Dew Point: 16°   Wind: 0mph
Humidity: 19%   Direction: NA
Pressure: 30.14"   Gusts: NA
Location:  34.02°N, 118.11°W
Report Text: KCQT 240947Z AUTO 00000KT 10SM CLR 15/M09 A3014 RMK AO2 SLP205 T01501089
Loading
Personal Weather Stations






























Interactive Weather Map New forecast layout! Learn more

10-Day Weather Forecast

Advertisements
Track Severe Weather on mobile